createdAt,value
2022-10-26T00:01:14.281Z,13.70
2022-10-26T00:03:43.143Z,12.90
2022-10-26T00:06:13.399Z,10.77
2022-10-26T00:08:41.372Z,13.48
2022-10-26T00:11:08.913Z,12.48
2022-10-26T00:13:37.235Z,8.82
2022-10-26T00:16:16.947Z,13.30
2022-10-26T00:18:48.501Z,12.45
2022-10-26T00:21:16.350Z,10.60
2022-10-26T00:23:45.216Z,13.68
2022-10-26T00:26:12.695Z,11.40
2022-10-26T00:28:40.474Z,13.30
2022-10-26T00:31:15.610Z,11.95
2022-10-26T00:33:42.916Z,31.08
2022-10-26T00:36:10.856Z,12.20
2022-10-26T00:38:38.327Z,12.40
2022-10-26T00:41:06.138Z,9.55
2022-10-26T00:43:35.658Z,10.85
2022-10-26T00:46:06.894Z,9.32
2022-10-26T00:48:41.368Z,11.77
2022-10-26T00:51:39.089Z,11.40
2022-10-26T00:54:11.957Z,10.82
2022-10-26T00:56:40.113Z,10.05
2022-10-26T00:59:10.498Z,12.52
2022-10-26T01:01:40.172Z,11.40
2022-10-26T01:04:07.623Z,8.38
2022-10-26T01:06:38.091Z,10.38
2022-10-26T01:09:05.737Z,8.98
2022-10-26T01:11:33.062Z,11.07
2022-10-26T01:14:05.038Z,10.70
2022-10-26T01:16:42.789Z,6.97
2022-10-26T01:19:28.551Z,10.95
2022-10-26T01:22:03.509Z,7.82
2022-10-26T01:25:01.856Z,13.10
2022-10-26T01:27:52.646Z,8.82
2022-10-26T01:30:25.315Z,12.40
2022-10-26T01:33:10.688Z,8.52
2022-10-26T01:36:25.970Z,7.65
2022-10-26T01:38:57.339Z,13.10
2022-10-26T01:41:38.204Z,8.88
2022-10-26T01:44:10.972Z,9.77
2022-10-26T01:46:44.122Z,7.00
2022-10-26T01:49:13.177Z,9.27
2022-10-26T01:51:44.205Z,9.65
2022-10-26T01:54:11.616Z,7.13
2022-10-26T01:56:45.327Z,7.63
2022-10-26T01:59:40.434Z,8.82
2022-10-26T02:02:45.191Z,11.10
2022-10-26T02:05:19.744Z,8.50
2022-10-26T02:08:14.614Z,8.77
2022-10-26T02:10:47.704Z,8.10
2022-10-26T02:13:30.062Z,9.43
2022-10-26T02:16:07.367Z,12.82
2022-10-26T02:18:40.997Z,10.30
2022-10-26T02:21:20.787Z,11.23
2022-10-26T02:23:49.316Z,9.05
2022-10-26T02:26:19.597Z,11.82
2022-10-26T02:28:51.738Z,10.95
2022-10-26T02:31:19.870Z,13.32
2022-10-26T02:36:27.516Z,11.25
2022-10-26T02:38:56.066Z,12.40
2022-10-26T02:41:26.910Z,12.55
2022-10-26T02:44:00.654Z,10.45
2022-10-26T02:46:28.420Z,10.00
2022-10-26T02:48:56.164Z,11.45
2022-10-26T02:51:44.779Z,11.85
2022-10-26T02:54:26.930Z,11.05
2022-10-26T02:57:16.222Z,10.18
2022-10-26T02:59:47.622Z,10.07
2022-10-26T03:02:19.446Z,9.98
2022-10-26T03:04:49.340Z,9.20
2022-10-26T03:07:24.334Z,11.07
2022-10-26T03:09:53.012Z,11.25
2022-10-26T03:12:20.639Z,8.65
2022-10-26T03:14:48.647Z,11.88
2022-10-26T03:17:16.765Z,11.77
2022-10-26T03:19:44.906Z,12.15
2022-10-26T03:22:12.377Z,10.52
2022-10-26T03:24:40.521Z,13.48
2022-10-26T03:27:07.889Z,10.10
2022-10-26T03:29:35.133Z,9.30
2022-10-26T03:32:02.316Z,10.25
2022-10-26T03:34:30.157Z,12.38
2022-10-26T03:36:57.410Z,11.73
2022-10-26T03:39:24.629Z,12.13
2022-10-26T03:44:19.141Z,9.73
2022-10-26T03:46:46.410Z,12.40
2022-10-26T03:49:13.601Z,12.60
2022-10-26T03:51:41.618Z,12.38
2022-10-26T03:54:09.118Z,13.55
2022-10-26T03:56:36.570Z,11.18
2022-10-26T03:59:04.211Z,10.88
2022-10-26T04:01:32.042Z,11.55
2022-10-26T04:04:01.487Z,13.13
2022-10-26T04:06:28.963Z,13.82
2022-10-26T04:09:02.443Z,17.05
2022-10-26T04:11:30.076Z,18.00
2022-10-26T04:13:59.808Z,20.85
2022-10-26T04:16:31.047Z,21.25
2022-10-26T04:19:02.278Z,17.25
2022-10-26T04:21:29.898Z,20.42
2022-10-26T04:23:57.103Z,11.18
2022-10-26T04:26:26.476Z,13.25
2022-10-26T04:28:53.873Z,11.65
2022-10-26T04:31:21.405Z,11.15
2022-10-26T04:33:48.686Z,10.60
2022-10-26T04:36:15.858Z,9.95
2022-10-26T04:38:44.309Z,8.55
2022-10-26T04:41:11.771Z,8.88
2022-10-26T04:43:41.498Z,7.85
2022-10-26T04:46:11.251Z,7.70
2022-10-26T04:48:40.756Z,5.88
2022-10-26T04:51:08.028Z,7.15
2022-10-26T04:53:35.899Z,5.57
2022-10-26T04:56:03.455Z,7.22
2022-10-26T04:58:31.143Z,9.38
2022-10-26T05:00:58.570Z,6.82
2022-10-26T05:03:26.062Z,8.00
2022-10-26T05:05:53.733Z,5.57
2022-10-26T05:08:21.267Z,5.57
2022-10-26T05:10:50.148Z,9.85
2022-10-26T05:13:23.410Z,7.47
2022-10-26T05:15:53.990Z,7.88
2022-10-26T05:18:22.049Z,8.73
2022-10-26T05:20:54.336Z,5.35
2022-10-26T05:23:22.149Z,6.60
2022-10-26T05:25:49.966Z,5.72
2022-10-26T05:28:18.877Z,6.60
2022-10-26T05:30:49.474Z,9.23
2022-10-26T05:33:19.242Z,7.00
2022-10-26T05:35:47.656Z,6.55
2022-10-26T05:38:16.957Z,6.65
2022-10-26T05:40:52.360Z,10.45
2022-10-26T05:43:21.111Z,10.13
2022-10-26T05:45:50.246Z,6.63
2022-10-26T05:48:17.787Z,10.27
2022-10-26T05:50:45.390Z,8.30
2022-10-26T05:53:13.055Z,8.20
2022-10-26T05:55:41.053Z,5.35
2022-10-26T05:58:17.260Z,6.03
2022-10-26T06:01:11.606Z,5.07
2022-10-26T06:04:02.373Z,4.45
2022-10-26T06:06:40.446Z,3.53
2022-10-26T06:09:13.886Z,4.80
2022-10-26T06:11:41.597Z,7.38
2022-10-26T06:14:10.128Z,8.20
2022-10-26T06:17:19.681Z,5.60
2022-10-26T06:20:14.259Z,4.50
2022-10-26T06:22:51.056Z,6.93
2022-10-26T06:25:48.466Z,8.02
2022-10-26T06:28:51.089Z,7.50
2022-10-26T06:31:18.993Z,5.88
2022-10-26T06:33:46.718Z,7.53
2022-10-26T06:36:23.339Z,5.90
2022-10-26T06:39:06.123Z,8.35
2022-10-26T06:41:34.993Z,7.25
2022-10-26T06:44:03.503Z,7.70
2022-10-26T06:46:46.406Z,8.73
2022-10-26T06:49:26.544Z,6.32
2022-10-26T06:52:07.218Z,6.82
2022-10-26T06:54:43.986Z,6.35
2022-10-26T06:57:13.296Z,7.60
2022-10-26T06:59:51.000Z,7.38
2022-10-26T07:02:18.854Z,7.15
2022-10-26T07:04:46.692Z,8.10
2022-10-26T07:07:16.695Z,19.67
2022-10-26T07:09:44.431Z,10.15
2022-10-26T07:12:14.347Z,10.23
2022-10-26T07:14:42.185Z,18.10
2022-10-26T07:17:10.244Z,21.40
2022-10-26T07:19:37.578Z,22.52
2022-10-26T07:22:04.877Z,19.60
2022-10-26T07:24:33.217Z,20.67
2022-10-26T07:27:00.505Z,19.38
2022-10-26T07:29:28.011Z,16.90
2022-10-26T07:31:55.667Z,31.13
2022-10-26T07:34:28.611Z,25.05
2022-10-26T07:36:55.995Z,19.55
2022-10-26T07:39:26.702Z,20.45
2022-10-26T07:41:54.353Z,20.63
2022-10-26T07:44:22.365Z,20.40
2022-10-26T07:46:52.806Z,21.83
2022-10-26T07:49:20.754Z,25.35
2022-10-26T07:51:49.487Z,36.90
2022-10-26T07:54:16.717Z,38.92
2022-10-26T07:56:44.170Z,39.65
2022-10-26T07:59:14.335Z,40.47
2022-10-26T08:01:43.001Z,38.05
2022-10-26T08:04:12.301Z,42.70
2022-10-26T08:06:43.783Z,40.83
2022-10-26T08:09:17.009Z,39.53
2022-10-26T08:11:46.915Z,38.33
2022-10-26T08:14:16.476Z,41.05
2022-10-26T08:16:46.428Z,42.13
2022-10-26T08:19:14.913Z,58.50
2022-10-26T08:21:45.662Z,42.60
2022-10-26T08:27:01.965Z,45.63
2022-10-26T08:29:30.251Z,46.40
2022-10-26T08:32:01.575Z,44.15
2022-10-26T08:34:34.649Z,43.63
2022-10-26T08:37:04.828Z,46.67
2022-10-26T08:39:34.007Z,42.97
2022-10-26T08:42:16.591Z,46.85
2022-10-26T08:44:55.872Z,41.60
2022-10-26T08:47:32.847Z,42.10
2022-10-26T08:50:10.380Z,42.17
2022-10-26T08:52:50.806Z,38.35
2022-10-26T08:55:25.826Z,38.63
2022-10-26T08:57:54.285Z,120.60
2022-10-26T09:00:23.837Z,38.03
2022-10-26T09:02:56.201Z,40.15
2022-10-26T09:05:41.478Z,35.20
2022-10-26T09:08:26.767Z,39.92
2022-10-26T09:11:19.838Z,32.72
2022-10-26T09:13:51.249Z,39.20
2022-10-26T09:16:40.834Z,35.55
2022-10-26T09:19:23.815Z,39.22
2022-10-26T09:22:07.992Z,33.85
2022-10-26T09:24:40.462Z,34.92
2022-10-26T09:27:35.170Z,34.13
2022-10-26T09:33:20.844Z,34.42
2022-10-26T09:36:03.140Z,34.85
2022-10-26T09:38:34.167Z,30.08
2022-10-26T09:44:43.043Z,42.55
2022-10-26T09:47:34.930Z,33.15
2022-10-26T09:50:29.890Z,34.22
2022-10-26T09:52:58.668Z,35.38
2022-10-26T09:55:27.838Z,34.13
2022-10-26T09:58:01.777Z,31.70
2022-10-26T10:03:36.208Z,37.88
2022-10-26T10:09:15.624Z,33.63
2022-10-26T10:12:02.805Z,37.60
2022-10-26T10:14:37.477Z,39.97
2022-10-26T10:17:20.233Z,34.75
2022-10-26T10:19:51.973Z,28.75
2022-10-26T10:22:26.880Z,26.90
2022-10-26T10:25:42.946Z,26.02
2022-10-26T10:28:29.379Z,28.48
2022-10-26T10:31:22.976Z,22.90
2022-10-26T10:33:54.503Z,34.20
2022-10-26T10:40:05.730Z,20.13
2022-10-26T10:42:36.390Z,20.92
2022-10-26T10:48:26.574Z,17.70
2022-10-26T10:51:01.278Z,18.52
2022-10-26T10:53:35.397Z,15.50
2022-10-26T10:56:24.061Z,14.85
2022-10-26T10:59:11.041Z,11.80
2022-10-26T11:01:43.693Z,11.20
2022-10-26T11:04:17.559Z,12.00
2022-10-26T11:06:47.359Z,13.77
2022-10-26T11:09:22.428Z,14.43
2022-10-26T11:11:54.805Z,15.80
2022-10-26T11:14:31.796Z,18.83
2022-10-26T11:17:38.886Z,23.75
2022-10-26T11:20:19.640Z,23.85
2022-10-26T11:22:53.600Z,19.67
2022-10-26T11:25:35.246Z,24.27
2022-10-26T11:28:35.765Z,24.92
2022-10-26T11:31:08.633Z,24.60
2022-10-26T11:33:41.928Z,23.92
2022-10-26T11:36:25.144Z,27.58
2022-10-26T11:41:55.309Z,28.67
2022-10-26T11:44:30.136Z,29.92
2022-10-26T11:47:26.910Z,33.78
2022-10-26T11:50:12.206Z,28.30
2022-10-26T11:52:55.815Z,29.08
2022-10-26T11:55:33.082Z,28.92
2022-10-26T11:58:08.998Z,38.13
2022-10-26T12:00:49.881Z,33.20
2022-10-26T12:03:30.359Z,71.50
2022-10-26T12:06:01.065Z,54.13
2022-10-26T12:08:31.271Z,58.38
2022-10-26T12:11:26.330Z,39.47
2022-10-26T12:14:29.209Z,31.65
2022-10-26T12:20:08.413Z,47.85
2022-10-26T12:22:43.972Z,31.70
2022-10-26T12:25:28.652Z,31.00
2022-10-26T12:28:08.833Z,32.67
2022-10-26T12:30:45.853Z,28.23
2022-10-26T12:33:30.538Z,24.75
2022-10-26T12:39:00.631Z,19.90
2022-10-26T12:41:33.378Z,20.17
2022-10-26T12:44:07.510Z,22.50
2022-10-26T12:46:40.305Z,23.95
2022-10-26T12:50:03.950Z,27.25
2022-10-26T12:53:17.595Z,33.60
2022-10-26T12:55:52.420Z,33.63
2022-10-26T12:58:33.781Z,37.17
2022-10-26T13:01:01.745Z,37.45
2022-10-26T13:04:20.426Z,44.03
2022-10-26T13:07:42.273Z,39.33
2022-10-26T13:11:11.890Z,35.58
2022-10-26T13:13:45.389Z,36.28
2022-10-26T13:16:54.770Z,43.55
2022-10-26T13:19:53.509Z,32.45
2022-10-26T13:22:48.089Z,32.97
2022-10-26T13:25:37.941Z,29.70
2022-10-26T14:08:21.951Z,21.52
2022-10-26T14:11:02.453Z,22.50
2022-10-26T14:13:36.314Z,20.05
2022-10-26T14:16:12.867Z,19.80
2022-10-26T14:18:53.398Z,22.17
2022-10-26T14:21:52.351Z,21.00
2022-10-26T14:24:35.927Z,20.90
2022-10-26T14:27:41.838Z,20.50
2022-10-26T14:39:52.080Z,14.10
2022-10-26T14:42:41.262Z,13.80
2022-10-26T14:45:49.460Z,17.33
2022-10-26T14:48:23.039Z,20.13
2022-10-26T14:51:13.191Z,19.98
2022-10-26T14:53:58.441Z,14.05
2022-10-26T14:56:36.691Z,15.48
2022-10-26T14:59:12.339Z,13.63
2022-10-26T15:02:01.145Z,13.38
2022-10-26T15:04:39.097Z,12.68
2022-10-26T15:07:20.405Z,14.63
2022-10-26T15:09:49.577Z,13.35
2022-10-26T15:12:44.741Z,13.43
2022-10-26T15:17:55.502Z,11.48
2022-10-26T15:20:28.626Z,16.48
2022-10-26T15:23:03.741Z,15.00
2022-10-26T15:26:02.945Z,12.82
2022-10-26T15:32:03.315Z,11.30
2022-10-26T15:34:38.398Z,9.98
2022-10-26T15:37:14.328Z,15.07
2022-10-26T15:39:44.508Z,11.60
2022-10-26T15:42:16.392Z,11.57
2022-10-26T15:44:53.349Z,9.57
2022-10-26T15:47:35.062Z,10.35
2022-10-26T15:50:03.093Z,24.40
2022-10-26T15:52:46.685Z,11.75
2022-10-26T15:55:27.593Z,11.45
2022-10-26T15:57:57.599Z,12.23
2022-10-26T16:00:25.128Z,11.70
2022-10-26T16:03:04.941Z,12.35
2022-10-26T16:05:36.907Z,11.50
2022-10-26T16:08:17.750Z,10.13
2022-10-26T16:10:56.915Z,12.73
2022-10-26T16:13:28.616Z,13.15
2022-10-26T16:16:07.096Z,14.05
2022-10-26T16:19:06.156Z,14.82
2022-10-26T16:21:43.110Z,12.02
2022-10-26T16:24:34.324Z,13.70
2022-10-26T16:27:02.616Z,18.48
2022-10-26T16:32:22.936Z,13.43
2022-10-26T16:34:51.520Z,14.73
2022-10-26T16:37:22.229Z,15.32
2022-10-26T16:42:52.240Z,13.32
2022-10-26T16:45:23.276Z,12.18
2022-10-26T16:47:52.980Z,14.52
2022-10-26T16:50:26.339Z,15.40
2022-10-26T16:58:15.986Z,16.80
2022-10-26T17:00:43.995Z,12.80
2022-10-26T17:03:13.352Z,11.32
2022-10-26T17:05:41.082Z,11.55
2022-10-26T17:08:08.948Z,13.23
2022-10-26T17:10:39.064Z,12.98
2022-10-26T17:13:11.360Z,13.13
2022-10-26T17:15:38.774Z,12.90
2022-10-26T17:18:11.133Z,10.82
2022-10-26T17:20:53.468Z,12.57
2022-10-26T17:23:22.851Z,13.95
2022-10-26T17:25:54.290Z,9.63
2022-10-26T17:28:22.370Z,15.25
2022-10-26T17:30:50.874Z,9.93
2022-10-26T17:33:18.656Z,11.63
2022-10-26T17:35:46.217Z,9.10
2022-10-26T17:38:13.865Z,12.23
2022-10-26T17:40:50.364Z,10.70
2022-10-26T17:43:45.332Z,10.50
2022-10-26T17:46:35.112Z,11.10
2022-10-26T19:01:28.378Z,13.07
2022-10-26T19:07:07.450Z,12.00
2022-10-26T19:10:06.454Z,17.27
2022-10-26T19:12:35.451Z,16.73
2022-10-26T19:15:03.287Z,20.20
2022-10-26T19:17:47.590Z,17.55
2022-10-26T19:20:19.735Z,16.90
2022-10-26T19:22:57.546Z,18.48
2022-10-26T19:25:30.483Z,17.98
2022-10-26T19:28:06.984Z,18.52
2022-10-26T19:31:13.783Z,15.55
2022-10-26T19:34:00.856Z,17.27
2022-10-26T19:36:45.718Z,16.08
2022-10-26T19:39:20.142Z,16.92
2022-10-26T19:41:47.936Z,14.93
2022-10-26T19:44:19.693Z,13.43
2022-10-26T19:47:01.423Z,17.45
2022-10-26T19:49:39.177Z,16.33
2022-10-26T19:55:05.600Z,18.15
2022-10-26T19:57:35.440Z,17.80
2022-10-26T20:00:06.304Z,13.68
2022-10-26T20:02:49.817Z,14.98
2022-10-26T20:05:19.449Z,16.05
2022-10-26T20:07:50.561Z,13.70
2022-10-26T20:10:18.004Z,27.58
2022-10-26T20:12:52.559Z,27.95
2022-10-26T20:15:21.303Z,22.08
2022-10-26T20:17:50.886Z,23.58
2022-10-26T20:20:20.259Z,25.85
2022-10-26T20:22:59.868Z,27.13
2022-10-26T20:25:29.451Z,24.58
2022-10-26T20:28:01.786Z,20.63
2022-10-26T20:30:32.715Z,22.35
2022-10-26T20:33:03.830Z,19.98
2022-10-26T20:35:32.791Z,16.08
2022-10-26T20:38:01.210Z,14.60
2022-10-26T20:40:29.163Z,15.18
2022-10-26T20:42:58.375Z,13.60
2022-10-26T20:45:31.249Z,12.18
2022-10-26T20:48:47.054Z,12.25
2022-10-26T20:52:08.592Z,13.15
2022-10-26T20:58:23.750Z,9.98
2022-10-26T21:00:56.732Z,9.88
2022-10-26T21:03:24.014Z,9.50
2022-10-26T21:05:52.265Z,8.93
2022-10-26T21:08:20.194Z,7.47
2022-10-26T21:10:50.257Z,14.23
2022-10-26T21:13:19.061Z,10.40
2022-10-26T21:15:46.614Z,7.22
2022-10-26T21:18:13.980Z,9.25
2022-10-26T21:20:41.721Z,7.45
2022-10-26T21:23:09.122Z,8.30
2022-10-26T21:25:37.103Z,9.60
2022-10-26T21:28:06.797Z,7.13
2022-10-26T21:30:34.158Z,8.30
2022-10-26T21:33:02.111Z,9.77
2022-10-26T21:35:29.613Z,7.57
2022-10-26T21:37:57.219Z,7.65
2022-10-26T21:40:24.696Z,7.45
2022-10-26T21:42:53.749Z,6.82
2022-10-26T21:45:22.665Z,7.47
2022-10-26T21:47:53.725Z,9.70
2022-10-26T21:50:21.136Z,7.72
2022-10-26T21:52:53.523Z,8.38
2022-10-26T21:55:21.020Z,5.90
2022-10-26T21:57:49.383Z,7.38
2022-10-26T22:00:17.118Z,7.47
2022-10-26T22:02:44.564Z,8.60
2022-10-26T22:05:11.822Z,8.02
2022-10-26T22:07:39.165Z,7.05
2022-10-26T22:10:11.272Z,6.30
2022-10-26T22:12:39.034Z,7.55
2022-10-26T22:15:06.967Z,8.75
2022-10-26T22:17:43.740Z,9.73
2022-10-26T22:20:12.025Z,7.07
2022-10-26T22:22:39.362Z,8.65
2022-10-26T22:25:07.144Z,7.65
2022-10-26T22:27:34.637Z,6.93
2022-10-26T22:30:04.151Z,5.25
2022-10-26T22:32:32.259Z,5.85
2022-10-26T22:35:10.915Z,10.35
2022-10-26T22:37:45.012Z,7.85
2022-10-26T22:40:12.654Z,6.38
2022-10-26T22:42:39.919Z,7.35
2022-10-26T22:45:31.369Z,10.65
2022-10-26T22:48:01.741Z,8.10
2022-10-26T22:50:38.560Z,8.40
2022-10-26T22:53:06.048Z,6.78
2022-10-26T22:55:33.473Z,12.15
2022-10-26T22:58:00.746Z,9.70
2022-10-26T23:00:28.066Z,10.35
2022-10-26T23:02:55.895Z,7.80
2022-10-26T23:05:23.116Z,8.45
2022-10-26T23:07:50.488Z,8.15
2022-10-26T23:10:18.817Z,7.30
2022-10-26T23:12:46.121Z,7.57
2022-10-26T23:15:13.743Z,7.68
2022-10-26T23:17:41.134Z,7.90
2022-10-26T23:20:09.013Z,10.18
2022-10-26T23:22:37.202Z,10.70
2022-10-26T23:25:04.725Z,9.73
2022-10-26T23:27:32.021Z,8.93
2022-10-26T23:29:59.994Z,9.90
2022-10-26T23:32:27.367Z,9.82
2022-10-26T23:34:54.945Z,10.15
2022-10-26T23:37:22.400Z,11.60
2022-10-26T23:39:49.616Z,10.93
2022-10-26T23:42:19.292Z,10.63
2022-10-26T23:44:46.579Z,9.23
2022-10-26T23:47:14.005Z,10.52
2022-10-26T23:49:41.212Z,12.40
2022-10-26T23:52:08.638Z,10.63
2022-10-26T23:54:36.965Z,13.77
2022-10-26T23:57:04.257Z,10.60
2022-10-26T23:59:31.494Z,11.18
